sensor_id;sensor_type;location;lat;lon;timestamp;P1;durP1;ratioP1;P2;durP2;ratioP2
1320;SDS011;653;51.480;11.992;2024-03-25T00:02:02;5.33;;;2.10;;
1320;SDS011;653;51.480;11.992;2024-03-25T00:04:32;2.37;;;2.17;;
1320;SDS011;653;51.480;11.992;2024-03-25T00:06:57;2.77;;;2.57;;
1320;SDS011;653;51.480;11.992;2024-03-25T00:09:33;2.77;;;2.57;;
1320;SDS011;653;51.480;11.992;2024-03-25T00:11:58;4.00;;;2.70;;
1320;SDS011;653;51.480;11.992;2024-03-25T00:14:24;5.50;;;2.60;;
1320;SDS011;653;51.480;11.992;2024-03-25T00:16:50;7.63;;;3.13;;
1320;SDS011;653;51.480;11.992;2024-03-25T00:19:16;3.43;;;2.70;;
1320;SDS011;653;51.480;11.992;2024-03-25T00:21:43;2.73;;;2.13;;
1320;SDS011;653;51.480;11.992;2024-03-25T00:24:13;5.90;;;2.90;;
1320;SDS011;653;51.480;11.992;2024-03-25T00:26:40;3.53;;;2.60;;
1320;SDS011;653;51.480;11.992;2024-03-25T00:29:08;3.47;;;2.60;;
1320;SDS011;653;51.480;11.992;2024-03-25T00:31:34;3.40;;;2.40;;
1320;SDS011;653;51.480;11.992;2024-03-25T00:34:00;2.90;;;2.57;;
1320;SDS011;653;51.480;11.992;2024-03-25T00:36:27;3.20;;;2.80;;
1320;SDS011;653;51.480;11.992;2024-03-25T00:38:55;2.83;;;2.50;;
1320;SDS011;653;51.480;11.992;2024-03-25T00:41:21;3.40;;;2.80;;
1320;SDS011;653;51.480;11.992;2024-03-25T00:43:53;3.60;;;3.20;;
1320;SDS011;653;51.480;11.992;2024-03-25T00:46:18;3.20;;;3.00;;
1320;SDS011;653;51.480;11.992;2024-03-25T00:48:46;3.60;;;3.30;;
1320;SDS011;653;51.480;11.992;2024-03-25T00:51:12;3.20;;;2.83;;
1320;SDS011;653;51.480;11.992;2024-03-25T00:53:41;2.77;;;2.57;;
1320;SDS011;653;51.480;11.992;2024-03-25T00:56:10;2.60;;;2.40;;
1320;SDS011;653;51.480;11.992;2024-03-25T00:58:38;3.30;;;3.10;;
1320;SDS011;653;51.480;11.992;2024-03-25T01:01:10;2.80;;;2.60;;
1320;SDS011;653;51.480;11.992;2024-03-25T01:03:40;3.20;;;2.90;;
1320;SDS011;653;51.480;11.992;2024-03-25T01:06:07;4.03;;;3.23;;
1320;SDS011;653;51.480;11.992;2024-03-25T01:08:36;3.40;;;3.10;;
1320;SDS011;653;51.480;11.992;2024-03-25T01:11:03;3.80;;;3.20;;
1320;SDS011;653;51.480;11.992;2024-03-25T01:13:33;4.90;;;3.57;;
1320;SDS011;653;51.480;11.992;2024-03-25T01:16:00;4.13;;;3.20;;
1320;SDS011;653;51.480;11.992;2024-03-25T01:18:27;7.33;;;4.93;;
1320;SDS011;653;51.480;11.992;2024-03-25T01:20:52;3.77;;;2.70;;
1320;SDS011;653;51.480;11.992;2024-03-25T01:23:23;4.70;;;3.70;;
1320;SDS011;653;51.480;11.992;2024-03-25T01:25:48;3.73;;;2.87;;
1320;SDS011;653;51.480;11.992;2024-03-25T01:28:18;3.10;;;2.83;;
1320;SDS011;653;51.480;11.992;2024-03-25T01:30:44;3.37;;;2.80;;
1320;SDS011;653;51.480;11.992;2024-03-25T01:33:12;3.13;;;2.77;;
1320;SDS011;653;51.480;11.992;2024-03-25T01:35:39;3.13;;;2.83;;
1320;SDS011;653;51.480;11.992;2024-03-25T01:38:07;3.00;;;2.70;;
1320;SDS011;653;51.480;11.992;2024-03-25T01:40:34;5.33;;;2.73;;
1320;SDS011;653;51.480;11.992;2024-03-25T01:43:04;3.07;;;2.77;;
1320;SDS011;653;51.480;11.992;2024-03-25T01:45:31;4.73;;;4.43;;
1320;SDS011;653;51.480;11.992;2024-03-25T01:47:59;5.00;;;3.70;;
1320;SDS011;653;51.480;11.992;2024-03-25T01:50:27;4.20;;;3.10;;
1320;SDS011;653;51.480;11.992;2024-03-25T01:52:58;4.90;;;2.87;;
1320;SDS011;653;51.480;11.992;2024-03-25T01:55:27;2.80;;;2.60;;
1320;SDS011;653;51.480;11.992;2024-03-25T01:57:56;3.13;;;2.83;;
1320;SDS011;653;51.480;11.992;2024-03-25T02:00:23;5.47;;;2.90;;
1320;SDS011;653;51.480;11.992;2024-03-25T02:02:53;4.23;;;3.83;;
1320;SDS011;653;51.480;11.992;2024-03-25T02:05:19;3.50;;;3.20;;
1320;SDS011;653;51.480;11.992;2024-03-25T02:07:46;5.03;;;3.43;;
1320;SDS011;653;51.480;11.992;2024-03-25T02:10:14;4.80;;;3.77;;
1320;SDS011;653;51.480;11.992;2024-03-25T02:12:45;4.30;;;3.27;;
1320;SDS011;653;51.480;11.992;2024-03-25T02:15:15;4.37;;;3.60;;
1320;SDS011;653;51.480;11.992;2024-03-25T02:17:45;3.47;;;3.23;;
1320;SDS011;653;51.480;11.992;2024-03-25T02:20:11;4.00;;;3.50;;
1320;SDS011;653;51.480;11.992;2024-03-25T02:22:41;4.00;;;3.70;;
1320;SDS011;653;51.480;11.992;2024-03-25T02:25:08;5.40;;;3.90;;
1320;SDS011;653;51.480;11.992;2024-03-25T02:27:40;3.93;;;3.63;;
1320;SDS011;653;51.480;11.992;2024-03-25T02:30:08;4.23;;;3.93;;
1320;SDS011;653;51.480;11.992;2024-03-25T02:32:37;9.50;;;4.33;;
1320;SDS011;653;51.480;11.992;2024-03-25T02:35:04;3.80;;;3.50;;
1320;SDS011;653;51.480;11.992;2024-03-25T02:37:36;5.03;;;4.53;;
1320;SDS011;653;51.480;11.992;2024-03-25T02:40:03;4.30;;;3.90;;
1320;SDS011;653;51.480;11.992;2024-03-25T02:42:31;4.83;;;4.10;;
1320;SDS011;653;51.480;11.992;2024-03-25T02:45:00;4.40;;;4.00;;
1320;SDS011;653;51.480;11.992;2024-03-25T02:47:27;4.20;;;3.80;;
1320;SDS011;653;51.480;11.992;2024-03-25T02:49:53;4.40;;;3.43;;
1320;SDS011;653;51.480;11.992;2024-03-25T02:52:28;10.23;;;4.30;;
1320;SDS011;653;51.480;11.992;2024-03-25T02:54:54;5.47;;;3.50;;
1320;SDS011;653;51.480;11.992;2024-03-25T02:57:22;4.10;;;3.70;;
1320;SDS011;653;51.480;11.992;2024-03-25T02:59:48;4.33;;;3.53;;
1320;SDS011;653;51.480;11.992;2024-03-25T03:02:20;3.70;;;3.40;;
1320;SDS011;653;51.480;11.992;2024-03-25T03:04:49;4.33;;;3.23;;
1320;SDS011;653;51.480;11.992;2024-03-25T03:07:15;3.27;;;2.90;;
1320;SDS011;653;51.480;11.992;2024-03-25T03:09:40;5.97;;;2.73;;
1320;SDS011;653;51.480;11.992;2024-03-25T03:12:10;6.97;;;3.43;;
1320;SDS011;653;51.480;11.992;2024-03-25T03:14:37;3.97;;;2.70;;
1320;SDS011;653;51.480;11.992;2024-03-25T03:17:05;7.27;;;3.17;;
1320;SDS011;653;51.480;11.992;2024-03-25T03:19:34;6.73;;;3.63;;
1320;SDS011;653;51.480;11.992;2024-03-25T03:22:02;2.90;;;2.50;;
1320;SDS011;653;51.480;11.992;2024-03-25T03:24:28;3.70;;;2.83;;
1320;SDS011;653;51.480;11.992;2024-03-25T03:26:55;3.97;;;2.93;;
1320;SDS011;653;51.480;11.992;2024-03-25T03:29:21;3.73;;;3.03;;
1320;SDS011;653;51.480;11.992;2024-03-25T03:31:54;3.07;;;2.63;;
1320;SDS011;653;51.480;11.992;2024-03-25T03:34:20;5.63;;;3.03;;
1320;SDS011;653;51.480;11.992;2024-03-25T03:36:48;4.73;;;2.40;;
1320;SDS011;653;51.480;11.992;2024-03-25T03:39:15;5.43;;;3.57;;
1320;SDS011;653;51.480;11.992;2024-03-25T03:41:41;4.30;;;2.80;;
1320;SDS011;653;51.480;11.992;2024-03-25T03:44:08;3.00;;;2.40;;
1320;SDS011;653;51.480;11.992;2024-03-25T03:46:36;4.23;;;3.27;;
1320;SDS011;653;51.480;11.992;2024-03-25T03:49:02;4.47;;;2.93;;
1320;SDS011;653;51.480;11.992;2024-03-25T03:51:30;7.70;;;3.83;;
1320;SDS011;653;51.480;11.992;2024-03-25T03:53:57;6.17;;;2.77;;
1320;SDS011;653;51.480;11.992;2024-03-25T03:56:27;4.13;;;2.87;;
1320;SDS011;653;51.480;11.992;2024-03-25T03:58:52;5.57;;;2.37;;
1320;SDS011;653;51.480;11.992;2024-03-25T04:01:19;4.47;;;3.30;;
1320;SDS011;653;51.480;11.992;2024-03-25T04:03:46;3.97;;;3.50;;
1320;SDS011;653;51.480;11.992;2024-03-25T04:06:14;7.20;;;3.67;;
1320;SDS011;653;51.480;11.992;2024-03-25T04:08:40;5.43;;;2.80;;
1320;SDS011;653;51.480;11.992;2024-03-25T04:11:10;5.20;;;2.90;;
1320;SDS011;653;51.480;11.992;2024-03-25T04:13:37;3.43;;;3.10;;
1320;SDS011;653;51.480;11.992;2024-03-25T04:16:04;5.87;;;3.03;;
1320;SDS011;653;51.480;11.992;2024-03-25T04:18:31;4.97;;;3.17;;
1320;SDS011;653;51.480;11.992;2024-03-25T04:20:58;5.87;;;3.33;;
1320;SDS011;653;51.480;11.992;2024-03-25T04:23:25;7.17;;;6.47;;
1320;SDS011;653;51.480;11.992;2024-03-25T04:25:51;5.60;;;4.07;;
1320;SDS011;653;51.480;11.992;2024-03-25T04:28:18;5.67;;;3.43;;
1320;SDS011;653;51.480;11.992;2024-03-25T04:30:50;5.67;;;4.00;;
1320;SDS011;653;51.480;11.992;2024-03-25T04:33:18;4.17;;;3.80;;
1320;SDS011;653;51.480;11.992;2024-03-25T04:35:46;10.10;;;4.13;;
1320;SDS011;653;51.480;11.992;2024-03-25T04:38:15;9.73;;;3.93;;
1320;SDS011;653;51.480;11.992;2024-03-25T04:40:40;5.20;;;3.90;;
1320;SDS011;653;51.480;11.992;2024-03-25T04:43:06;5.93;;;4.27;;
1320;SDS011;653;51.480;11.992;2024-03-25T04:45:33;4.83;;;4.23;;
1320;SDS011;653;51.480;11.992;2024-03-25T04:47:58;7.93;;;5.40;;
1320;SDS011;653;51.480;11.992;2024-03-25T04:50:25;5.60;;;3.33;;
1320;SDS011;653;51.480;11.992;2024-03-25T04:52:52;4.00;;;3.60;;
1320;SDS011;653;51.480;11.992;2024-03-25T04:55:18;4.27;;;3.70;;
1320;SDS011;653;51.480;11.992;2024-03-25T04:57:44;5.63;;;4.43;;
1320;SDS011;653;51.480;11.992;2024-03-25T05:00:11;4.03;;;3.70;;
1320;SDS011;653;51.480;11.992;2024-03-25T05:02:43;3.70;;;3.40;;
1320;SDS011;653;51.480;11.992;2024-03-25T05:05:10;3.70;;;3.30;;
1320;SDS011;653;51.480;11.992;2024-03-25T05:07:37;5.43;;;3.90;;
1320;SDS011;653;51.480;11.992;2024-03-25T05:10:04;4.67;;;3.60;;
1320;SDS011;653;51.480;11.992;2024-03-25T05:12:31;3.30;;;2.87;;
1320;SDS011;653;51.480;11.992;2024-03-25T05:14:58;3.80;;;3.30;;
1320;SDS011;653;51.480;11.992;2024-03-25T05:17:25;4.00;;;3.17;;
1320;SDS011;653;51.480;11.992;2024-03-25T05:19:54;5.37;;;3.90;;
1320;SDS011;653;51.480;11.992;2024-03-25T05:22:21;3.87;;;3.47;;
1320;SDS011;653;51.480;11.992;2024-03-25T05:24:48;9.63;;;3.87;;
1320;SDS011;653;51.480;11.992;2024-03-25T05:27:15;5.70;;;3.67;;
1320;SDS011;653;51.480;11.992;2024-03-25T05:29:41;5.13;;;3.63;;
1320;SDS011;653;51.480;11.992;2024-03-25T05:32:07;4.37;;;3.50;;
1320;SDS011;653;51.480;11.992;2024-03-25T05:34:32;4.77;;;4.20;;
1320;SDS011;653;51.480;11.992;2024-03-25T05:37:02;3.60;;;3.30;;
1320;SDS011;653;51.480;11.992;2024-03-25T05:39:28;4.40;;;4.00;;
1320;SDS011;653;51.480;11.992;2024-03-25T05:41:55;5.47;;;4.30;;
1320;SDS011;653;51.480;11.992;2024-03-25T05:44:22;6.03;;;4.03;;
1320;SDS011;653;51.480;11.992;2024-03-25T05:46:48;9.10;;;4.50;;
1320;SDS011;653;51.480;11.992;2024-03-25T05:49:15;5.90;;;4.10;;
1320;SDS011;653;51.480;11.992;2024-03-25T05:51:40;3.90;;;3.60;;
1320;SDS011;653;51.480;11.992;2024-03-25T05:54:07;5.80;;;4.10;;
1320;SDS011;653;51.480;11.992;2024-03-25T05:56:32;6.40;;;4.20;;
1320;SDS011;653;51.480;11.992;2024-03-25T05:58:58;4.50;;;4.13;;
1320;SDS011;653;51.480;11.992;2024-03-25T06:01:24;8.10;;;4.30;;
1320;SDS011;653;51.480;11.992;2024-03-25T06:03:51;4.13;;;3.80;;
1320;SDS011;653;51.480;11.992;2024-03-25T06:06:19;4.33;;;4.00;;
1320;SDS011;653;51.480;11.992;2024-03-25T06:08:46;4.63;;;4.23;;
1320;SDS011;653;51.480;11.992;2024-03-25T06:11:17;4.60;;;3.70;;
1320;SDS011;653;51.480;11.992;2024-03-25T06:13:45;4.90;;;4.57;;
1320;SDS011;653;51.480;11.992;2024-03-25T06:16:12;4.50;;;4.10;;
1320;SDS011;653;51.480;11.992;2024-03-25T06:18:39;5.00;;;4.60;;
1320;SDS011;653;51.480;11.992;2024-03-25T06:21:06;4.97;;;4.47;;
1320;SDS011;653;51.480;11.992;2024-03-25T06:23:32;4.53;;;4.13;;
1320;SDS011;653;51.480;11.992;2024-03-25T06:25:59;3.83;;;3.53;;
1320;SDS011;653;51.480;11.992;2024-03-25T06:28:27;4.50;;;4.10;;
1320;SDS011;653;51.480;11.992;2024-03-25T06:30:55;5.10;;;4.70;;
1320;SDS011;653;51.480;11.992;2024-03-25T06:33:40;4.87;;;4.47;;
1320;SDS011;653;51.480;11.992;2024-03-25T06:36:25;5.93;;;4.43;;
1320;SDS011;653;51.480;11.992;2024-03-25T06:38:50;4.57;;;4.17;;
1320;SDS011;653;51.480;11.992;2024-03-25T06:41:17;5.13;;;4.73;;
1320;SDS011;653;51.480;11.992;2024-03-25T06:43:45;4.23;;;3.93;;
1320;SDS011;653;51.480;11.992;2024-03-25T06:46:11;7.27;;;5.00;;
1320;SDS011;653;51.480;11.992;2024-03-25T06:48:38;5.30;;;4.80;;
1320;SDS011;653;51.480;11.992;2024-03-25T06:51:04;5.93;;;5.03;;
1320;SDS011;653;51.480;11.992;2024-03-25T06:53:29;5.00;;;4.60;;
1320;SDS011;653;51.480;11.992;2024-03-25T06:55:55;5.00;;;4.10;;
1320;SDS011;653;51.480;11.992;2024-03-25T06:58:23;7.23;;;4.13;;
1320;SDS011;653;51.480;11.992;2024-03-25T07:00:51;4.47;;;4.07;;
1320;SDS011;653;51.480;11.992;2024-03-25T07:03:19;6.60;;;4.40;;
1320;SDS011;653;51.480;11.992;2024-03-25T07:05:47;4.20;;;3.90;;
1320;SDS011;653;51.480;11.992;2024-03-25T07:08:12;4.63;;;4.23;;
1320;SDS011;653;51.480;11.992;2024-03-25T07:10:38;6.03;;;4.80;;
1320;SDS011;653;51.480;11.992;2024-03-25T07:13:03;4.93;;;4.53;;
1320;SDS011;653;51.480;11.992;2024-03-25T07:15:30;5.07;;;4.77;;
1320;SDS011;653;51.480;11.992;2024-03-25T07:17:57;5.40;;;5.00;;
1320;SDS011;653;51.480;11.992;2024-03-25T07:20:24;4.90;;;4.53;;
1320;SDS011;653;51.480;11.992;2024-03-25T07:22:50;4.43;;;3.57;;
1320;SDS011;653;51.480;11.992;2024-03-25T07:25:17;4.10;;;3.80;;
1320;SDS011;653;51.480;11.992;2024-03-25T07:27:44;3.97;;;3.67;;
1320;SDS011;653;51.480;11.992;2024-03-25T07:30:10;5.93;;;3.80;;
1320;SDS011;653;51.480;11.992;2024-03-25T07:32:36;4.50;;;4.17;;
1320;SDS011;653;51.480;11.992;2024-03-25T07:35:03;4.83;;;3.97;;
1320;SDS011;653;51.480;11.992;2024-03-25T07:37:30;4.43;;;4.10;;
1320;SDS011;653;51.480;11.992;2024-03-25T07:39:55;4.17;;;3.87;;
1320;SDS011;653;51.480;11.992;2024-03-25T07:42:20;5.83;;;3.77;;
1320;SDS011;653;51.480;11.992;2024-03-25T07:44:46;4.87;;;3.37;;
1320;SDS011;653;51.480;11.992;2024-03-25T07:47:11;4.87;;;4.37;;
1320;SDS011;653;51.480;11.992;2024-03-25T07:49:38;5.10;;;4.67;;
1320;SDS011;653;51.480;11.992;2024-03-25T07:52:06;4.10;;;3.70;;
1320;SDS011;653;51.480;11.992;2024-03-25T07:54:33;5.50;;;4.27;;
1320;SDS011;653;51.480;11.992;2024-03-25T07:57:01;4.60;;;4.20;;
1320;SDS011;653;51.480;11.992;2024-03-25T07:59:26;4.30;;;3.90;;
1320;SDS011;653;51.480;11.992;2024-03-25T08:01:53;4.40;;;4.10;;
1320;SDS011;653;51.480;11.992;2024-03-25T08:04:20;4.00;;;3.70;;
1320;SDS011;653;51.480;11.992;2024-03-25T08:06:47;6.17;;;4.00;;
1320;SDS011;653;51.480;11.992;2024-03-25T08:09:18;4.80;;;4.40;;
1320;SDS011;653;51.480;11.992;2024-03-25T08:11:43;4.60;;;4.20;;
1320;SDS011;653;51.480;11.992;2024-03-25T08:14:10;5.60;;;4.60;;
1320;SDS011;653;51.480;11.992;2024-03-25T08:16:37;8.93;;;4.57;;
1320;SDS011;653;51.480;11.992;2024-03-25T08:19:03;4.23;;;3.83;;
1320;SDS011;653;51.480;11.992;2024-03-25T08:21:29;4.50;;;4.10;;
1320;SDS011;653;51.480;11.992;2024-03-25T08:23:58;4.13;;;3.83;;
1320;SDS011;653;51.480;11.992;2024-03-25T08:26:26;4.57;;;4.23;;
1320;SDS011;653;51.480;11.992;2024-03-25T08:28:51;4.57;;;4.17;;
1320;SDS011;653;51.480;11.992;2024-03-25T08:31:18;3.83;;;3.53;;
1320;SDS011;653;51.480;11.992;2024-03-25T08:33:44;9.00;;;4.50;;
1320;SDS011;653;51.480;11.992;2024-03-25T08:36:10;6.17;;;3.80;;
1320;SDS011;653;51.480;11.992;2024-03-25T08:38:37;5.50;;;4.77;;
1320;SDS011;653;51.480;11.992;2024-03-25T08:41:04;6.80;;;3.90;;
1320;SDS011;653;51.480;11.992;2024-03-25T08:43:31;4.30;;;3.73;;
1320;SDS011;653;51.480;11.992;2024-03-25T08:45:56;4.10;;;3.70;;
1320;SDS011;653;51.480;11.992;2024-03-25T08:48:23;5.17;;;4.20;;
1320;SDS011;653;51.480;11.992;2024-03-25T08:50:48;6.43;;;4.47;;
1320;SDS011;653;51.480;11.992;2024-03-25T08:53:15;4.10;;;3.80;;
1320;SDS011;653;51.480;11.992;2024-03-25T08:55:44;6.03;;;4.03;;
1320;SDS011;653;51.480;11.992;2024-03-25T08:58:13;4.40;;;3.83;;
1320;SDS011;653;51.480;11.992;2024-03-25T09:00:41;4.43;;;4.10;;
1320;SDS011;653;51.480;11.992;2024-03-25T09:03:07;4.17;;;3.90;;
1320;SDS011;653;51.480;11.992;2024-03-25T09:05:33;3.80;;;3.60;;
1320;SDS011;653;51.480;11.992;2024-03-25T09:07:59;5.13;;;4.63;;
1320;SDS011;653;51.480;11.992;2024-03-25T09:10:25;4.13;;;3.90;;
1320;SDS011;653;51.480;11.992;2024-03-25T09:13:07;3.80;;;3.60;;
1320;SDS011;653;51.480;11.992;2024-03-25T09:15:34;3.87;;;3.57;;
1320;SDS011;653;51.480;11.992;2024-03-25T09:18:01;7.23;;;4.70;;
1320;SDS011;653;51.480;11.992;2024-03-25T09:20:26;4.30;;;4.00;;
1320;SDS011;653;51.480;11.992;2024-03-25T09:22:52;7.63;;;4.37;;
1320;SDS011;653;51.480;11.992;2024-03-25T09:25:19;4.83;;;4.43;;
1320;SDS011;653;51.480;11.992;2024-03-25T09:27:45;7.33;;;4.57;;
1320;SDS011;653;51.480;11.992;2024-03-25T09:30:12;6.20;;;5.70;;
1320;SDS011;653;51.480;11.992;2024-03-25T09:32:39;4.77;;;4.20;;
1320;SDS011;653;51.480;11.992;2024-03-25T09:35:08;7.63;;;3.70;;
1320;SDS011;653;51.480;11.992;2024-03-25T09:37:35;5.00;;;4.50;;
1320;SDS011;653;51.480;11.992;2024-03-25T09:40:01;6.33;;;4.70;;
1320;SDS011;653;51.480;11.992;2024-03-25T09:42:31;6.40;;;4.33;;
1320;SDS011;653;51.480;11.992;2024-03-25T09:44:58;5.03;;;4.53;;
1320;SDS011;653;51.480;11.992;2024-03-25T09:47:25;5.70;;;4.27;;
1320;SDS011;653;51.480;11.992;2024-03-25T09:49:52;7.13;;;5.03;;
1320;SDS011;653;51.480;11.992;2024-03-25T09:52:22;4.97;;;4.00;;
1320;SDS011;653;51.480;11.992;2024-03-25T09:54:48;5.97;;;4.73;;
1320;SDS011;653;51.480;11.992;2024-03-25T09:57:15;4.33;;;3.93;;
1320;SDS011;653;51.480;11.992;2024-03-25T09:59:42;8.50;;;4.20;;
1320;SDS011;653;51.480;11.992;2024-03-25T10:02:10;4.60;;;4.27;;
1320;SDS011;653;51.480;11.992;2024-03-25T10:04:38;3.97;;;3.77;;
1320;SDS011;653;51.480;11.992;2024-03-25T10:07:07;5.60;;;4.27;;
1320;SDS011;653;51.480;11.992;2024-03-25T10:09:35;4.70;;;4.30;;
1320;SDS011;653;51.480;11.992;2024-03-25T10:12:00;4.70;;;4.30;;
1320;SDS011;653;51.480;11.992;2024-03-25T10:14:27;5.20;;;4.90;;
1320;SDS011;653;51.480;11.992;2024-03-25T10:16:53;4.80;;;4.47;;
1320;SDS011;653;51.480;11.992;2024-03-25T10:19:20;4.60;;;4.30;;
1320;SDS011;653;51.480;11.992;2024-03-25T10:21:46;5.40;;;4.83;;
1320;SDS011;653;51.480;11.992;2024-03-25T10:24:11;4.10;;;3.70;;
1320;SDS011;653;51.480;11.992;2024-03-25T10:26:38;4.47;;;4.07;;
1320;SDS011;653;51.480;11.992;2024-03-25T10:29:05;4.63;;;4.23;;
1320;SDS011;653;51.480;11.992;2024-03-25T10:31:32;4.60;;;4.30;;
1320;SDS011;653;51.480;11.992;2024-03-25T10:33:58;5.20;;;4.70;;
1320;SDS011;653;51.480;11.992;2024-03-25T10:36:25;4.33;;;3.83;;
1320;SDS011;653;51.480;11.992;2024-03-25T10:38:53;4.23;;;3.83;;
1320;SDS011;653;51.480;11.992;2024-03-25T10:41:20;4.00;;;3.70;;
1320;SDS011;653;51.480;11.992;2024-03-25T10:43:49;3.97;;;3.60;;
1320;SDS011;653;51.480;11.992;2024-03-25T10:46:19;3.90;;;3.67;;
1320;SDS011;653;51.480;11.992;2024-03-25T10:48:48;4.00;;;3.70;;
1320;SDS011;653;51.480;11.992;2024-03-25T10:51:23;4.07;;;3.77;;
1320;SDS011;653;51.480;11.992;2024-03-25T10:53:51;4.30;;;3.90;;
1320;SDS011;653;51.480;11.992;2024-03-25T10:56:20;3.90;;;3.70;;
1320;SDS011;653;51.480;11.992;2024-03-25T10:58:47;4.30;;;4.00;;
1320;SDS011;653;51.480;11.992;2024-03-25T11:01:15;4.20;;;3.90;;
1320;SDS011;653;51.480;11.992;2024-03-25T11:03:43;4.70;;;4.30;;
1320;SDS011;653;51.480;11.992;2024-03-25T11:06:12;4.77;;;4.17;;
1320;SDS011;653;51.480;11.992;2024-03-25T11:08:37;3.90;;;3.60;;
1320;SDS011;653;51.480;11.992;2024-03-25T11:11:04;5.70;;;4.10;;
1320;SDS011;653;51.480;11.992;2024-03-25T11:13:30;5.47;;;3.90;;
1320;SDS011;653;51.480;11.992;2024-03-25T11:16:00;5.17;;;4.77;;
1320;SDS011;653;51.480;11.992;2024-03-25T11:18:26;4.17;;;3.80;;
1320;SDS011;653;51.480;11.992;2024-03-25T11:21:03;7.53;;;4.60;;
1320;SDS011;653;51.480;11.992;2024-03-25T11:23:35;5.57;;;3.87;;
1320;SDS011;653;51.480;11.992;2024-03-25T11:26:00;4.03;;;3.73;;
1320;SDS011;653;51.480;11.992;2024-03-25T11:28:26;5.47;;;5.07;;
1320;SDS011;653;51.480;11.992;2024-03-25T11:30:52;5.00;;;4.07;;
1320;SDS011;653;51.480;11.992;2024-03-25T11:33:20;4.30;;;4.00;;
1320;SDS011;653;51.480;11.992;2024-03-25T11:35:47;4.00;;;3.70;;
1320;SDS011;653;51.480;11.992;2024-03-25T11:38:13;3.90;;;3.60;;
1320;SDS011;653;51.480;11.992;2024-03-25T11:40:40;5.33;;;3.60;;
1320;SDS011;653;51.480;11.992;2024-03-25T11:43:07;4.43;;;4.13;;
1320;SDS011;653;51.480;11.992;2024-03-25T11:45:33;3.63;;;3.33;;
1320;SDS011;653;51.480;11.992;2024-03-25T11:47:58;3.67;;;3.47;;
1320;SDS011;653;51.480;11.992;2024-03-25T11:50:26;4.23;;;3.83;;
1320;SDS011;653;51.480;11.992;2024-03-25T11:52:53;3.47;;;3.27;;
1320;SDS011;653;51.480;11.992;2024-03-25T11:55:20;4.00;;;3.70;;
1320;SDS011;653;51.480;11.992;2024-03-25T11:57:46;4.30;;;3.90;;
1320;SDS011;653;51.480;11.992;2024-03-25T12:00:13;3.80;;;3.50;;
1320;SDS011;653;51.480;11.992;2024-03-25T12:02:42;3.83;;;3.53;;
1320;SDS011;653;51.480;11.992;2024-03-25T12:05:09;3.87;;;3.57;;
1320;SDS011;653;51.480;11.992;2024-03-25T12:07:41;4.70;;;4.30;;
1320;SDS011;653;51.480;11.992;2024-03-25T12:10:08;5.27;;;4.00;;
1320;SDS011;653;51.480;11.992;2024-03-25T12:12:53;4.20;;;3.80;;
1320;SDS011;653;51.480;11.992;2024-03-25T12:15:19;4.80;;;4.40;;
1320;SDS011;653;51.480;11.992;2024-03-25T12:17:46;4.43;;;4.03;;
1320;SDS011;653;51.480;11.992;2024-03-25T12:20:13;5.17;;;4.67;;
1320;SDS011;653;51.480;11.992;2024-03-25T12:22:52;5.33;;;3.90;;
1320;SDS011;653;51.480;11.992;2024-03-25T12:25:19;5.10;;;4.60;;
1320;SDS011;653;51.480;11.992;2024-03-25T12:27:46;4.60;;;4.20;;
1320;SDS011;653;51.480;11.992;2024-03-25T12:30:13;4.40;;;4.00;;
1320;SDS011;653;51.480;11.992;2024-03-25T12:32:39;4.73;;;4.40;;
1320;SDS011;653;51.480;11.992;2024-03-25T12:35:08;5.30;;;4.13;;
1320;SDS011;653;51.480;11.992;2024-03-25T12:37:36;4.60;;;4.20;;
1320;SDS011;653;51.480;11.992;2024-03-25T12:40:03;5.07;;;4.87;;
1320;SDS011;653;51.480;11.992;2024-03-25T12:42:30;5.40;;;5.00;;
1320;SDS011;653;51.480;11.992;2024-03-25T12:44:55;5.07;;;4.77;;
1320;SDS011;653;51.480;11.992;2024-03-25T12:47:21;4.90;;;4.50;;
1320;SDS011;653;51.480;11.992;2024-03-25T12:49:48;4.60;;;4.20;;
1320;SDS011;653;51.480;11.992;2024-03-25T12:52:14;5.40;;;4.90;;
1320;SDS011;653;51.480;11.992;2024-03-25T12:54:39;5.50;;;4.70;;
1320;SDS011;653;51.480;11.992;2024-03-25T12:57:10;5.30;;;4.73;;
1320;SDS011;653;51.480;11.992;2024-03-25T12:59:37;4.67;;;4.23;;
1320;SDS011;653;51.480;11.992;2024-03-25T13:02:08;4.43;;;4.03;;
1320;SDS011;653;51.480;11.992;2024-03-25T13:04:36;5.20;;;4.27;;
1320;SDS011;653;51.480;11.992;2024-03-25T13:07:01;5.67;;;4.70;;
1320;SDS011;653;51.480;11.992;2024-03-25T13:09:28;6.63;;;4.60;;
1320;SDS011;653;51.480;11.992;2024-03-25T13:11:54;5.30;;;4.80;;
1320;SDS011;653;51.480;11.992;2024-03-25T13:14:32;5.00;;;4.50;;
1320;SDS011;653;51.480;11.992;2024-03-25T13:16:59;5.07;;;4.63;;
1320;SDS011;653;51.480;11.992;2024-03-25T13:19:25;4.20;;;3.90;;
1320;SDS011;653;51.480;11.992;2024-03-25T13:21:51;5.30;;;4.80;;
1320;SDS011;653;51.480;11.992;2024-03-25T13:24:18;6.30;;;4.60;;
1320;SDS011;653;51.480;11.992;2024-03-25T13:26:43;5.10;;;4.60;;
1320;SDS011;653;51.480;11.992;2024-03-25T13:29:08;5.03;;;4.63;;
1320;SDS011;653;51.480;11.992;2024-03-25T13:31:37;5.00;;;4.60;;
1320;SDS011;653;51.480;11.992;2024-03-25T13:34:02;4.10;;;3.90;;
1320;SDS011;653;51.480;11.992;2024-03-25T13:36:28;6.40;;;4.40;;
1320;SDS011;653;51.480;11.992;2024-03-25T13:38:53;5.30;;;4.80;;
1320;SDS011;653;51.480;11.992;2024-03-25T13:41:19;5.03;;;4.53;;
1320;SDS011;653;51.480;11.992;2024-03-25T13:43:46;4.90;;;4.37;;
1320;SDS011;653;51.480;11.992;2024-03-25T13:46:13;5.50;;;5.00;;
1320;SDS011;653;51.480;11.992;2024-03-25T13:48:41;6.60;;;4.50;;
1320;SDS011;653;51.480;11.992;2024-03-25T13:51:08;5.47;;;4.93;;
1320;SDS011;653;51.480;11.992;2024-03-25T13:53:33;5.70;;;5.00;;
1320;SDS011;653;51.480;11.992;2024-03-25T13:56:00;5.13;;;4.63;;
1320;SDS011;653;51.480;11.992;2024-03-25T13:58:27;5.53;;;5.03;;
1320;SDS011;653;51.480;11.992;2024-03-25T14:00:53;8.37;;;4.87;;
1320;SDS011;653;51.480;11.992;2024-03-25T14:03:20;9.17;;;4.87;;
1320;SDS011;653;51.480;11.992;2024-03-25T14:08:31;5.20;;;4.73;;
1320;SDS011;653;51.480;11.992;2024-03-25T14:10:58;5.37;;;4.30;;
1320;SDS011;653;51.480;11.992;2024-03-25T14:13:25;4.47;;;4.07;;
1320;SDS011;653;51.480;11.992;2024-03-25T14:15:50;5.67;;;4.53;;
1320;SDS011;653;51.480;11.992;2024-03-25T14:18:17;5.30;;;4.63;;
1320;SDS011;653;51.480;11.992;2024-03-25T14:20:43;4.70;;;4.40;;
1320;SDS011;653;51.480;11.992;2024-03-25T14:23:10;5.23;;;4.43;;
1320;SDS011;653;51.480;11.992;2024-03-25T14:25:40;5.50;;;4.40;;
1320;SDS011;653;51.480;11.992;2024-03-25T14:28:06;5.13;;;4.70;;
1320;SDS011;653;51.480;11.992;2024-03-25T14:30:33;6.50;;;6.00;;
1320;SDS011;653;51.480;11.992;2024-03-25T14:32:59;5.07;;;4.77;;
1320;SDS011;653;51.480;11.992;2024-03-25T14:35:26;5.00;;;4.50;;
1320;SDS011;653;51.480;11.992;2024-03-25T14:37:52;5.87;;;5.10;;
1320;SDS011;653;51.480;11.992;2024-03-25T14:40:19;6.30;;;5.13;;
1320;SDS011;653;51.480;11.992;2024-03-25T14:42:49;6.13;;;5.27;;
1320;SDS011;653;51.480;11.992;2024-03-25T14:45:15;5.20;;;4.70;;
1320;SDS011;653;51.480;11.992;2024-03-25T14:47:42;5.43;;;4.80;;
1320;SDS011;653;51.480;11.992;2024-03-25T14:50:09;5.87;;;4.43;;
1320;SDS011;653;51.480;11.992;2024-03-25T14:52:35;5.30;;;4.87;;
1320;SDS011;653;51.480;11.992;2024-03-25T14:55:01;4.80;;;4.40;;
1320;SDS011;653;51.480;11.992;2024-03-25T14:57:28;4.93;;;4.60;;
1320;SDS011;653;51.480;11.992;2024-03-25T14:59:54;5.10;;;4.70;;
1320;SDS011;653;51.480;11.992;2024-03-25T15:02:20;5.60;;;5.10;;
1320;SDS011;653;51.480;11.992;2024-03-25T15:04:47;6.47;;;4.60;;
1320;SDS011;653;51.480;11.992;2024-03-25T15:07:13;6.10;;;5.30;;
1320;SDS011;653;51.480;11.992;2024-03-25T15:09:39;5.03;;;4.57;;
1320;SDS011;653;51.480;11.992;2024-03-25T15:12:06;5.20;;;4.43;;
1320;SDS011;653;51.480;11.992;2024-03-25T15:14:33;5.50;;;4.53;;
1320;SDS011;653;51.480;11.992;2024-03-25T15:17:01;4.83;;;4.43;;
1320;SDS011;653;51.480;11.992;2024-03-25T15:19:28;6.57;;;4.00;;